Time;durP1;ratioP1;P1;durP2;ratioP2;P2;SDS_P1;SDS_P2;PMS_P1;PMS_P2;Temp;Humidity;BMP_temperature;BMP_pressure;BME280_temperature;BME280_humidity;BME280_pressure;Samples;Min_cycle;Max_cycle;Signal;HPM_P1;HPM_P2
2023/08/21 00:01:13;;;;;;;3.15;0.82;;;16.10;99.90;;;;;;5061578;28;20047;-75
2023/08/21 00:03:39;;;;;;;1.23;0.80;;;16.10;99.90;;;;;;5074162;28;20488;-74
2023/08/21 00:06:04;;;;;;;1.98;0.70;;;16.00;99.90;;;;;;5057067;28;20044;-74
2023/08/21 00:08:30;;;;;;;2.10;0.90;;;16.00;99.90;;;;;;5068357;28;20059;-74
2023/08/21 00:10:56;;;;;;;3.03;0.88;;;16.00;99.90;;;;;;5048705;28;20037;-75
2023/08/21 00:13:21;;;;;;;1.60;0.80;;;16.00;99.90;;;;;;5034745;28;20540;-75
2023/08/21 00:15:47;;;;;;;2.80;0.80;;;15.90;99.90;;;;;;5033925;28;20119;-74
2023/08/21 00:18:12;;;;;;;1.13;0.75;;;15.80;99.90;;;;;;5036577;28;20505;-75
2023/08/21 00:20:39;;;;;;;2.20;1.00;;;15.80;99.90;;;;;;5056759;28;20128;-74
2023/08/21 00:23:04;;;;;;;1.90;0.80;;;15.80;99.90;;;;;;5071927;28;20044;-75
2023/08/21 00:25:30;;;;;;;2.58;0.90;;;15.80;99.90;;;;;;5056756;28;20036;-75
2023/08/21 00:27:55;;;;;;;2.03;0.90;;;15.70;99.90;;;;;;5071121;28;20056;-74
2023/08/21 00:30:21;;;;;;;2.58;0.77;;;15.70;99.90;;;;;;5069679;28;20048;-74
2023/08/21 00:32:46;;;;;;;2.28;0.60;;;15.70;99.90;;;;;;5066932;28;20481;-75
2023/08/21 00:35:12;;;;;;;3.78;0.60;;;15.70;99.90;;;;;;5056562;28;20033;-75
2023/08/21 00:37:38;;;;;;;1.77;0.52;;;15.70;99.90;;;;;;5073348;28;20041;-75
2023/08/21 00:40:04;;;;;;;0.50;0.40;;;15.70;99.90;;;;;;5058499;28;20404;-75
2023/08/21 00:42:29;;;;;;;0.93;0.35;;;15.70;99.90;;;;;;5043652;28;20074;-74
2023/08/21 00:44:55;;;;;;;0.75;0.30;;;15.60;99.90;;;;;;5072982;28;20495;-75
2023/08/21 00:47:20;;;;;;;1.08;0.30;;;15.60;99.90;;;;;;5056315;28;20047;-74
2023/08/21 00:49:46;;;;;;;0.47;0.32;;;15.50;99.90;;;;;;5063007;28;20041;-74
2023/08/21 00:52:14;;;;;;;1.45;0.35;;;15.50;99.90;;;;;;5055012;28;20063;-75
2023/08/21 00:54:40;;;;;;;0.80;0.45;;;15.50;99.90;;;;;;5072897;28;20032;-75
2023/08/21 00:57:06;;;;;;;1.08;0.30;;;15.50;99.90;;;;;;5089512;28;20480;-75
2023/08/21 00:59:31;;;;;;;0.60;0.40;;;15.40;99.90;;;;;;5066720;28;20095;-75
2023/08/21 01:01:57;;;;;;;0.90;0.30;;;15.30;99.90;;;;;;5036282;28;20083;-75
2023/08/21 01:04:23;;;;;;;1.35;0.30;;;15.30;99.90;;;;;;5069891;28;20046;-75
2023/08/21 01:06:51;;;;;;;0.30;0.30;;;15.30;99.90;;;;;;5074029;28;20036;-75
2023/08/21 01:09:26;;;;;;;0.68;0.60;;;15.40;99.90;;;;;;5072462;28;20112;-75
2023/08/21 01:12:23;;;;;;;1.70;0.70;;;15.30;99.90;;;;;;5053017;28;20401;-75
2023/08/21 01:14:59;;;;;;;3.05;1.00;;;15.30;99.90;;;;;;5070734;28;20515;-75
2023/08/21 01:17:26;;;;;;;1.23;1.02;;;15.10;99.90;;;;;;5072371;28;20484;-75
2023/08/21 01:19:53;;;;;;;2.90;1.45;;;15.00;99.90;;;;;;5053239;28;20493;-75
2023/08/21 01:22:18;;;;;;;3.55;1.50;;;15.00;99.90;;;;;;5051314;28;20048;-75
2023/08/21 01:24:44;;;;;;;1.85;0.70;;;15.00;99.90;;;;;;5065351;28;20036;-76
2023/08/21 01:27:12;;;;;;;0.65;0.65;;;15.00;99.90;;;;;;5069295;28;20110;-75
2023/08/21 01:29:37;;;;;;;0.82;0.80;;;15.00;99.90;;;;;;5055782;28;20048;-75
2023/08/21 01:32:18;;;;;;;1.00;0.85;;;15.00;99.90;;;;;;5038147;28;20045;-75
2023/08/21 01:34:47;;;;;;;1.75;0.90;;;15.00;99.90;;;;;;5065167;28;20048;-75
2023/08/21 01:37:13;;;;;;;1.17;0.73;;;15.00;99.90;;;;;;5072364;28;20119;-75
2023/08/21 01:39:39;;;;;;;2.28;1.10;;;14.90;99.90;;;;;;5072403;28;20032;-75
2023/08/21 01:42:05;;;;;;;1.20;1.00;;;14.90;99.90;;;;;;5059068;28;20115;-75
2023/08/21 01:44:30;;;;;;;4.13;1.10;;;14.90;99.90;;;;;;5048407;28;20040;-75
2023/08/21 01:46:56;;;;;;;1.50;1.02;;;14.80;99.90;;;;;;5068625;28;20071;-75
2023/08/21 01:49:21;;;;;;;2.13;1.13;;;14.70;99.90;;;;;;5071781;28;20040;-75
2023/08/21 01:51:47;;;;;;;3.25;1.35;;;14.70;99.90;;;;;;5064074;28;20048;-75
2023/08/21 01:54:12;;;;;;;1.73;0.98;;;14.70;99.90;;;;;;5061251;28;20039;-75
2023/08/21 01:56:38;;;;;;;1.58;0.95;;;14.70;99.90;;;;;;5050362;28;20036;-75
2023/08/21 01:59:07;;;;;;;1.48;0.90;;;14.70;99.90;;;;;;5070493;28;20159;-74
2023/08/21 02:01:33;;;;;;;2.38;1.05;;;14.60;99.90;;;;;;5069018;28;20036;-74
2023/08/21 02:03:59;;;;;;;0.95;0.80;;;14.60;99.90;;;;;;5042936;28;20037;-75
2023/08/21 02:06:24;;;;;;;0.70;0.70;;;14.50;99.90;;;;;;5071778;28;20039;-74
2023/08/21 02:08:50;;;;;;;0.77;0.77;;;14.50;99.90;;;;;;5071795;28;20101;-75
2023/08/21 02:11:15;;;;;;;1.40;0.70;;;14.50;99.90;;;;;;5071632;28;20118;-75
2023/08/21 02:13:41;;;;;;;1.23;0.70;;;14.50;99.90;;;;;;5065961;28;20037;-74
2023/08/21 02:16:07;;;;;;;1.05;0.68;;;14.50;99.90;;;;;;5071661;28;20075;-75
2023/08/21 02:18:32;;;;;;;1.73;0.63;;;14.50;99.90;;;;;;5068354;28;20044;-75
2023/08/21 02:21:01;;;;;;;2.40;0.70;;;14.50;99.90;;;;;;5055309;28;20041;-75
2023/08/21 02:23:27;;;;;;;0.93;0.68;;;14.50;99.90;;;;;;5065276;28;20041;-75
2023/08/21 02:25:53;;;;;;;0.73;0.50;;;14.50;99.90;;;;;;5073007;28;20370;-75
2023/08/21 02:28:19;;;;;;;1.55;0.75;;;14.50;99.90;;;;;;5070328;28;20048;-74
2023/08/21 02:30:45;;;;;;;1.50;0.60;;;14.50;99.90;;;;;;5070576;28;20123;-75
2023/08/21 02:33:10;;;;;;;0.50;0.50;;;14.40;99.90;;;;;;5071394;28;20612;-75
2023/08/21 02:35:36;;;;;;;0.68;0.68;;;14.40;99.90;;;;;;5076696;28;20078;-75
2023/08/21 02:38:02;;;;;;;0.50;0.50;;;14.30;99.90;;;;;;5074085;28;20040;-75
2023/08/21 02:40:28;;;;;;;0.50;0.50;;;14.10;99.90;;;;;;5058691;28;20039;-75
2023/08/21 02:42:53;;;;;;;1.15;0.45;;;14.10;99.90;;;;;;5074440;28;20434;-75
2023/08/21 02:45:19;;;;;;;2.00;0.50;;;14.10;99.90;;;;;;5055528;28;20041;-75
2023/08/21 02:47:45;;;;;;;1.65;0.45;;;14.10;99.90;;;;;;5038602;28;20044;-75
2023/08/21 02:50:11;;;;;;;0.43;0.43;;;14.10;99.90;;;;;;5071337;28;20064;-75
2023/08/21 02:52:36;;;;;;;0.63;0.40;;;14.10;99.90;;;;;;5075316;28;20045;-75
2023/08/21 02:55:03;;;;;;;1.05;0.50;;;14.00;99.90;;;;;;5058835;28;20044;-75
2023/08/21 02:57:29;;;;;;;0.40;0.40;;;14.00;99.90;;;;;;5055078;28;20481;-75
2023/08/21 02:59:55;;;;;;;3.03;0.40;;;14.10;99.90;;;;;;5055316;28;20033;-75
2023/08/21 03:02:21;;;;;;;0.30;0.30;;;14.00;99.90;;;;;;5056073;28;20120;-75
2023/08/21 03:04:48;;;;;;;0.40;0.40;;;14.00;99.90;;;;;;5042424;28;20362;-75
2023/08/21 03:07:14;;;;;;;0.40;0.40;;;14.00;99.90;;;;;;5055134;28;20041;-75
2023/08/21 03:09:40;;;;;;;0.85;0.43;;;13.90;99.90;;;;;;5054906;28;20115;-75
2023/08/21 03:12:07;;;;;;;0.40;0.40;;;13.90;99.90;;;;;;5055194;28;20112;-75
2023/08/21 03:14:32;;;;;;;0.50;0.50;;;14.00;99.90;;;;;;5065301;28;20577;-75
2023/08/21 03:16:58;;;;;;;1.25;0.40;;;13.90;99.90;;;;;;5054987;28;20140;-75
2023/08/21 03:19:23;;;;;;;1.75;0.32;;;13.90;99.90;;;;;;5040865;28;20097;-75
2023/08/21 03:21:49;;;;;;;0.90;0.35;;;13.90;99.90;;;;;;5054634;28;20037;-75
2023/08/21 03:24:15;;;;;;;2.78;0.60;;;13.90;99.90;;;;;;5064049;28;20417;-75
2023/08/21 03:26:40;;;;;;;0.82;0.40;;;13.90;99.90;;;;;;5037552;28;20049;-75
2023/08/21 03:29:06;;;;;;;1.88;0.50;;;13.90;99.90;;;;;;5054533;28;20097;-76
2023/08/21 03:31:32;;;;;;;1.00;0.55;;;13.80;99.90;;;;;;5052709;28;20090;-76
2023/08/21 03:33:57;;;;;;;1.20;0.57;;;13.80;99.90;;;;;;5054556;28;20468;-75
2023/08/21 03:36:30;;;;;;;0.85;0.73;;;13.60;99.90;;;;;;5060680;28;20048;-75
2023/08/21 03:39:00;;;;;;;1.42;0.73;;;13.50;99.90;;;;;;5045316;28;20036;-75
2023/08/21 03:41:26;;;;;;;3.17;0.80;;;13.40;99.90;;;;;;5090380;28;20037;-75
2023/08/21 03:43:52;;;;;;;2.28;0.55;;;13.40;99.90;;;;;;5071287;28;20032;-75
2023/08/21 03:46:18;;;;;;;0.75;0.43;;;13.50;99.90;;;;;;5062818;28;20036;-76
2023/08/21 03:48:43;;;;;;;1.45;0.50;;;13.50;99.90;;;;;;5053133;28;20044;-75
2023/08/21 03:51:09;;;;;;;1.13;0.20;;;13.50;99.90;;;;;;5037540;28;20049;-75
2023/08/21 03:53:35;;;;;;;0.50;0.30;;;13.60;99.90;;;;;;5059167;28;20119;-75
2023/08/21 03:56:00;;;;;;;0.30;0.30;;;13.60;99.90;;;;;;5066556;28;20048;-75
2023/08/21 03:58:26;;;;;;;0.30;0.30;;;13.60;99.90;;;;;;5037555;28;20435;-75
2023/08/21 04:00:52;;;;;;;1.45;0.40;;;13.60;99.90;;;;;;5053875;28;20041;-75
2023/08/21 04:03:18;;;;;;;1.65;0.30;;;13.50;99.90;;;;;;5038525;28;20033;-75
2023/08/21 04:05:44;;;;;;;1.13;0.40;;;13.40;99.90;;;;;;5057060;28;20109;-75
2023/08/21 04:08:09;;;;;;;1.42;0.47;;;13.30;99.90;;;;;;5052968;28;20044;-75
2023/08/21 04:10:35;;;;;;;2.00;0.65;;;13.30;99.90;;;;;;5053692;28;20550;-75
2023/08/21 04:13:01;;;;;;;1.65;0.57;;;13.30;99.90;;;;;;5047303;28;20044;-75
2023/08/21 04:15:27;;;;;;;0.75;0.40;;;13.30;99.90;;;;;;5054418;28;20037;-75
2023/08/21 04:17:52;;;;;;;1.05;0.50;;;13.40;99.90;;;;;;5058211;28;20397;-75
2023/08/21 04:20:20;;;;;;;0.57;0.40;;;13.40;99.90;;;;;;5053568;28;20047;-75
2023/08/21 04:22:45;;;;;;;1.38;0.43;;;13.40;99.90;;;;;;5054808;28;20063;-75
2023/08/21 04:25:11;;;;;;;0.63;0.40;;;13.40;99.90;;;;;;5068128;28;20494;-76
2023/08/21 04:27:37;;;;;;;0.55;0.38;;;13.40;99.90;;;;;;5062359;28;20064;-76
2023/08/21 04:30:04;;;;;;;0.63;0.47;;;13.40;99.90;;;;;;5052474;28;21946;-76
2023/08/21 04:32:30;;;;;;;1.42;0.60;;;13.30;99.90;;;;;;5053489;28;20045;-76
2023/08/21 04:34:56;;;;;;;2.63;0.50;;;13.30;99.90;;;;;;5071916;28;20032;-75
2023/08/21 04:37:21;;;;;;;2.83;0.50;;;13.30;99.90;;;;;;5051092;28;20040;-76
2023/08/21 04:39:51;;;;;;;0.85;0.70;;;13.20;99.90;;;;;;5047970;28;20419;-76
2023/08/21 04:42:17;;;;;;;0.88;0.70;;;13.20;99.90;;;;;;5073114;28;20082;-76
2023/08/21 04:44:42;;;;;;;1.85;0.80;;;13.20;99.90;;;;;;5070983;28;20028;-76
2023/08/21 04:47:21;;;;;;;1.17;0.60;;;13.20;99.90;;;;;;5073272;28;20090;-76
2023/08/21 04:49:48;;;;;;;0.55;0.50;;;13.20;99.90;;;;;;5034205;28;20156;-76
2023/08/21 04:52:14;;;;;;;1.90;0.50;;;13.20;99.90;;;;;;5033010;28;20064;-76
2023/08/21 04:54:39;;;;;;;2.90;0.80;;;13.20;99.90;;;;;;5060199;28;20036;-76
2023/08/21 04:57:05;;;;;;;2.58;0.73;;;13.20;99.90;;;;;;5073065;28;20049;-76
2023/08/21 04:59:30;;;;;;;1.13;0.60;;;13.20;99.90;;;;;;5054981;28;20067;-76
2023/08/21 05:01:57;;;;;;;1.27;0.50;;;13.20;99.90;;;;;;5036166;28;20459;-76
2023/08/21 05:04:22;;;;;;;1.13;0.68;;;13.20;99.90;;;;;;5080075;28;20139;-76
2023/08/21 05:06:48;;;;;;;3.15;0.70;;;13.20;99.90;;;;;;5068605;28;20536;-76
2023/08/21 05:09:13;;;;;;;0.88;0.60;;;13.10;99.90;;;;;;5074380;28;20095;-76
2023/08/21 05:11:39;;;;;;;0.80;0.50;;;13.10;99.90;;;;;;5052479;28;20048;-75
2023/08/21 05:14:05;;;;;;;1.17;0.70;;;13.10;99.90;;;;;;5044875;28;20400;-76
2023/08/21 05:16:30;;;;;;;1.10;0.80;;;13.20;99.90;;;;;;5070503;28;20036;-77
2023/08/21 05:18:56;;;;;;;2.22;0.80;;;13.20;99.90;;;;;;5046666;28;20489;-76
2023/08/21 05:21:21;;;;;;;1.70;0.80;;;13.20;99.90;;;;;;5052207;28;20036;-76
2023/08/21 05:23:47;;;;;;;1.75;1.00;;;13.20;99.90;;;;;;5072470;28;20093;-76
2023/08/21 05:26:12;;;;;;;1.38;0.80;;;13.20;99.90;;;;;;5072046;28;20599;-76
2023/08/21 05:28:38;;;;;;;1.63;0.80;;;13.20;99.90;;;;;;5052663;28;20420;-76
2023/08/21 05:31:03;;;;;;;5.53;1.02;;;13.20;99.90;;;;;;5051395;28;20040;-76
2023/08/21 05:33:29;;;;;;;1.10;0.70;;;13.20;99.90;;;;;;5039484;28;20047;-76
2023/08/21 05:35:57;;;;;;;1.75;0.80;;;13.20;99.90;;;;;;5072154;28;20123;-76
2023/08/21 05:38:22;;;;;;;1.13;0.82;;;13.30;99.90;;;;;;5069910;28;20119;-76
2023/08/21 05:40:49;;;;;;;3.65;1.33;;;13.30;99.90;;;;;;5072658;28;20140;-76
2023/08/21 05:43:15;;;;;;;2.17;1.15;;;13.40;99.90;;;;;;5037084;28;20045;-76
2023/08/21 05:45:41;;;;;;;1.77;1.10;;;13.40;99.90;;;;;;5069411;28;20481;-76
2023/08/21 05:48:07;;;;;;;1.63;1.20;;;13.40;99.90;;;;;;5070311;28;20036;-76
2023/08/21 05:50:32;;;;;;;2.30;1.20;;;13.40;99.90;;;;;;5060766;28;20441;-76
2023/08/21 05:52:58;;;;;;;2.17;1.10;;;13.40;99.90;;;;;;5033917;28;20044;-76
2023/08/21 05:55:24;;;;;;;1.83;1.13;;;13.50;99.90;;;;;;5084801;28;20393;-76
2023/08/21 05:57:49;;;;;;;3.45;1.40;;;13.50;99.90;;;;;;5070234;28;20135;-78
2023/08/21 06:00:15;;;;;;;2.65;1.33;;;13.60;99.90;;;;;;5066213;28;20067;-77
2023/08/21 06:02:43;;;;;;;1.10;1.00;;;13.70;99.90;;;;;;5035393;28;20485;-77
2023/08/21 06:05:09;;;;;;;2.90;1.42;;;13.70;99.90;;;;;;5045161;28;20043;-77
2023/08/21 06:07:35;;;;;;;2.88;1.30;;;13.80;99.90;;;;;;5055098;28;20036;-77
2023/08/21 06:10:00;;;;;;;2.13;1.25;;;13.90;99.90;;;;;;5069006;28;20041;-77
2023/08/21 06:12:26;;;;;;;2.08;1.40;;;14.00;99.90;;;;;;5034244;28;20041;-77
2023/08/21 06:14:52;;;;;;;1.92;1.30;;;14.10;99.90;;;;;;5053722;28;20044;-77
2023/08/21 06:17:17;;;;;;;4.32;1.63;;;14.30;99.90;;;;;;5071831;28;20044;-77
2023/08/21 06:19:43;;;;;;;6.50;1.65;;;14.30;99.90;;;;;;5049915;28;20174;-76
2023/08/21 06:22:08;;;;;;;5.35;2.03;;;14.40;99.90;;;;;;5047284;28;20108;-77
2023/08/21 06:24:34;;;;;;;7.95;2.50;;;14.50;99.90;;;;;;5058751;28;20045;-76
2023/08/21 06:26:59;;;;;;;5.47;1.90;;;14.60;99.90;;;;;;5050406;28;20437;-76
2023/08/21 06:29:25;;;;;;;6.43;2.20;;;14.70;99.90;;;;;;5038129;28;20084;-76
2023/08/21 06:31:50;;;;;;;5.28;2.17;;;14.80;99.90;;;;;;5046496;28;20037;-76
2023/08/21 06:34:16;;;;;;;7.30;2.25;;;14.90;99.90;;;;;;5040129;28;20102;-76
2023/08/21 06:36:42;;;;;;;7.38;2.03;;;15.10;99.90;;;;;;5030183;28;20560;-76
2023/08/21 06:39:07;;;;;;;8.50;2.40;;;15.20;99.90;;;;;;5048272;28;20399;-76
2023/08/21 06:41:33;;;;;;;7.05;2.10;;;15.30;99.90;;;;;;5050910;28;20041;-76
2023/08/21 06:43:58;;;;;;;4.10;1.77;;;15.40;99.90;;;;;;5053752;28;20036;-76
2023/08/21 06:46:24;;;;;;;6.53;2.25;;;15.60;99.90;;;;;;5054668;28;20052;-76
2023/08/21 06:48:52;;;;;;;7.53;2.03;;;15.70;99.90;;;;;;5058361;28;20041;-76
2023/08/21 06:51:18;;;;;;;6.72;2.20;;;15.80;99.90;;;;;;5047431;28;20041;-76
2023/08/21 06:53:43;;;;;;;5.30;1.92;;;15.90;99.90;;;;;;5049061;28;20098;-76
2023/08/21 06:56:09;;;;;;;7.47;2.00;;;16.00;99.90;;;;;;5046179;28;20097;-76
2023/08/21 06:58:35;;;;;;;8.38;2.13;;;16.10;99.90;;;;;;5037452;28;20041;-76
2023/08/21 07:01:01;;;;;;;9.27;1.90;;;16.30;99.90;;;;;;5045657;28;20036;-77
2023/08/21 07:03:26;;;;;;;5.68;1.83;;;16.50;99.90;;;;;;5063000;28;20036;-77
2023/08/21 07:05:56;;;;;;;6.97;2.05;;;16.50;99.90;;;;;;5065517;28;20040;-77
2023/08/21 07:08:22;;;;;;;6.90;1.80;;;16.70;99.90;;;;;;5055921;28;20076;-76
2023/08/21 07:10:48;;;;;;;4.60;1.90;;;16.80;99.90;;;;;;5034600;28;20048;-76
2023/08/21 07:13:14;;;;;;;3.97;1.50;;;17.00;99.90;;;;;;5058025;28;20025;-81
2023/08/21 07:15:40;;;;;;;7.80;1.90;;;17.10;99.90;;;;;;5061698;28;20112;-81
2023/08/21 07:18:05;;;;;;;6.97;1.60;;;17.30;99.90;;;;;;5047092;28;20042;-76
2023/08/21 07:20:31;;;;;;;9.90;1.67;;;17.40;99.90;;;;;;5048478;28;20041;-76
2023/08/21 07:22:58;;;;;;;7.90;1.83;;;17.50;99.90;;;;;;5062884;28;20048;-76
2023/08/21 07:25:25;;;;;;;5.32;1.77;;;17.60;99.90;;;;;;5055535;28;20051;-76
2023/08/21 07:27:53;;;;;;;7.45;1.73;;;17.80;99.90;;;;;;5045847;28;20053;-76
2023/08/21 07:30:19;;;;;;;8.43;2.00;;;17.90;99.90;;;;;;5046468;28;20037;-76
2023/08/21 07:32:46;;;;;;;8.20;1.70;;;18.00;99.90;;;;;;5063690;28;20039;-76
2023/08/21 07:35:11;;;;;;;7.43;1.52;;;18.10;99.90;;;;;;5043958;28;20033;-76
2023/08/21 07:37:37;;;;;;;5.20;1.45;;;18.30;99.90;;;;;;5037346;28;20087;-76
2023/08/21 07:40:04;;;;;;;5.20;1.40;;;18.40;99.90;;;;;;5052075;28;20037;-76
2023/08/21 07:42:30;;;;;;;6.70;1.60;;;18.40;99.90;;;;;;5037606;28;20033;-76
2023/08/21 07:44:56;;;;;;;5.68;1.40;;;18.60;99.90;;;;;;5056720;28;20498;-76
2023/08/21 07:47:21;;;;;;;7.85;1.30;;;18.70;99.90;;;;;;5047901;28;20095;-76
2023/08/21 07:49:47;;;;;;;7.35;1.63;;;18.70;99.90;;;;;;5055596;28;20064;-76
2023/08/21 07:52:12;;;;;;;4.63;1.50;;;18.80;99.90;;;;;;5025155;28;20045;-76
2023/08/21 07:54:38;;;;;;;7.53;1.33;;;18.90;99.90;;;;;;5048067;28;20033;-76
2023/08/21 07:57:04;;;;;;;7.18;1.50;;;19.00;99.90;;;;;;5035653;28;20045;-76
2023/08/21 07:59:29;;;;;;;6.65;1.38;;;19.10;99.90;;;;;;5053812;28;20546;-76
2023/08/21 08:01:55;;;;;;;4.97;1.35;;;19.10;99.90;;;;;;5054058;28;20089;-76
2023/08/21 08:04:21;;;;;;;5.00;1.20;;;19.20;99.90;;;;;;5057236;28;20067;-76
2023/08/21 08:06:47;;;;;;;4.80;1.40;;;19.20;99.90;;;;;;5054160;28;20033;-76
2023/08/21 08:09:12;;;;;;;3.97;1.33;;;19.30;99.90;;;;;;5037167;28;20525;-76
2023/08/21 08:11:38;;;;;;;4.72;1.40;;;19.40;99.90;;;;;;5052278;28;20029;-77
2023/08/21 08:14:03;;;;;;;6.65;1.80;;;19.40;99.90;;;;;;5047073;28;20060;-77
2023/08/21 08:16:29;;;;;;;7.32;1.58;;;19.60;99.90;;;;;;5062045;28;20060;-77
2023/08/21 08:18:54;;;;;;;5.82;1.50;;;19.60;99.90;;;;;;5065303;28;20488;-77
2023/08/21 08:21:20;;;;;;;5.78;1.38;;;19.70;99.90;;;;;;5036720;28;20505;-77
2023/08/21 08:23:46;;;;;;;5.95;1.30;;;19.80;99.90;;;;;;5054903;28;20048;-77
2023/08/21 08:26:11;;;;;;;4.80;1.58;;;19.80;99.90;;;;;;5046658;28;20032;-76
2023/08/21 08:28:37;;;;;;;6.55;1.60;;;19.90;99.90;;;;;;5069401;28;20049;-77
2023/08/21 08:31:02;;;;;;;3.60;1.17;;;20.00;99.90;;;;;;5072861;28;20390;-77
2023/08/21 08:33:28;;;;;;;4.47;1.27;;;20.10;99.90;;;;;;5049210;28;20032;-77
2023/08/21 08:35:53;;;;;;;5.63;1.15;;;20.20;99.90;;;;;;5049038;28;20389;-77
2023/08/21 08:38:19;;;;;;;5.18;1.42;;;20.30;99.90;;;;;;5036674;28;20041;-77
2023/08/21 08:40:46;;;;;;;8.18;1.50;;;20.40;99.90;;;;;;5070632;28;20040;-77
2023/08/21 08:43:13;;;;;;;4.40;1.17;;;20.40;99.90;;;;;;5052455;28;20033;-77
2023/08/21 08:45:40;;;;;;;4.13;1.20;;;20.50;99.90;;;;;;5033236;28;20462;-77
2023/08/21 08:48:07;;;;;;;6.25;1.70;;;20.60;99.90;;;;;;5052322;28;20041;-77
2023/08/21 08:50:34;;;;;;;4.72;1.30;;;20.70;99.90;;;;;;5051485;28;20424;-77
2023/08/21 08:53:00;;;;;;;5.22;1.33;;;20.80;99.90;;;;;;5044528;28;20047;-77
2023/08/21 08:55:26;;;;;;;7.18;1.65;;;20.90;99.90;;;;;;5031001;28;20048;-77
2023/08/21 08:57:53;;;;;;;6.93;1.40;;;21.00;99.90;;;;;;5052275;28;20033;-77
2023/08/21 09:00:20;;;;;;;6.22;1.33;;;21.10;99.90;;;;;;5026305;28;20123;-77
2023/08/21 09:02:46;;;;;;;3.60;1.17;;;21.20;99.90;;;;;;5051275;28;20036;-77
2023/08/21 09:05:12;;;;;;;4.97;1.23;;;21.20;99.90;;;;;;5054225;28;20077;-77
2023/08/21 09:07:38;;;;;;;5.63;1.40;;;21.30;99.90;;;;;;5052491;28;20374;-77
2023/08/21 09:10:12;;;;;;;5.40;1.25;;;21.40;99.90;;;;;;5036040;28;20037;-77
2023/08/21 09:12:38;;;;;;;5.00;1.00;;;21.50;99.90;;;;;;5064640;28;20386;-77
2023/08/21 09:15:08;;;;;;;5.15;1.10;;;21.60;99.90;;;;;;5058949;28;20051;-77
2023/08/21 09:17:33;;;;;;;5.78;1.33;;;21.70;99.90;;;;;;5040878;28;20514;-78
2023/08/21 09:20:07;;;;;;;2.92;1.10;;;21.80;99.90;;;;;;5062550;28;20039;-77
2023/08/21 09:22:33;;;;;;;6.78;1.42;;;21.80;99.90;;;;;;5052415;28;20585;-77
2023/08/21 09:25:06;;;;;;;6.28;1.33;;;21.90;99.90;;;;;;5051337;28;20171;-78
2023/08/21 09:27:33;;;;;;;5.35;1.48;;;22.00;99.90;;;;;;5070940;28;20105;-77
2023/08/21 09:30:02;;;;;;;4.13;1.27;;;22.00;99.90;;;;;;5076255;28;20052;-77
2023/08/21 09:32:27;;;;;;;6.28;1.35;;;22.00;99.90;;;;;;5049863;28;20029;-77
2023/08/21 09:34:53;;;;;;;4.13;1.20;;;22.10;99.90;;;;;;5025693;28;20048;-77
2023/08/21 09:37:18;;;;;;;5.70;1.20;;;22.10;99.90;;;;;;5052893;28;20090;-77
2023/08/21 09:39:45;;;;;;;5.85;1.25;;;22.20;99.90;;;;;;5064930;28;20039;-77
2023/08/21 09:42:10;;;;;;;3.22;1.15;;;22.30;99.90;;;;;;5043558;28;20037;-77
2023/08/21 09:44:42;;;;;;;3.88;1.10;;;22.30;99.90;;;;;;5039747;28;20103;-77
2023/08/21 09:47:12;;;;;;;4.20;1.10;;;22.30;99.90;;;;;;5058468;28;20550;-77
2023/08/21 09:49:39;;;;;;;3.88;1.38;;;22.40;99.90;;;;;;5035748;28;20059;-77
2023/08/21 09:52:11;;;;;;;5.60;1.20;;;22.40;99.90;;;;;;5049219;28;20511;-77
2023/08/21 09:54:39;;;;;;;5.82;1.17;;;22.40;99.90;;;;;;5052058;28;20489;-77
2023/08/21 09:57:05;;;;;;;7.43;1.30;;;22.50;99.90;;;;;;5040445;28;20115;-77
2023/08/21 09:59:31;;;;;;;3.63;1.00;;;22.60;99.90;;;;;;5062431;28;20124;-77
2023/08/21 10:01:59;;;;;;;4.82;1.15;;;22.50;99.90;;;;;;5035112;28;20538;-77
2023/08/21 10:04:27;;;;;;;4.93;1.20;;;22.60;99.90;;;;;;5055866;28;20115;-77
2023/08/21 10:06:55;;;;;;;4.32;1.30;;;22.60;99.90;;;;;;5062256;28;20041;-77
2023/08/21 10:09:23;;;;;;;4.68;1.20;;;22.70;99.90;;;;;;5062516;28;20037;-77
2023/08/21 10:11:49;;;;;;;6.22;1.13;;;22.70;99.90;;;;;;5031266;28;20091;-77
2023/08/21 10:14:15;;;;;;;7.60;1.60;;;22.80;99.90;;;;;;5048534;28;20091;-77
2023/08/21 10:16:41;;;;;;;5.38;1.50;;;22.90;99.90;;;;;;5060165;28;20108;-77
2023/08/21 10:19:08;;;;;;;4.90;1.20;;;23.00;99.90;;;;;;5051645;28;20096;-77
2023/08/21 10:21:37;;;;;;;3.75;1.23;;;23.00;99.90;;;;;;5033841;28;20068;-78
2023/08/21 10:24:03;;;;;;;4.88;1.20;;;23.00;99.90;;;;;;5055595;28;20126;-77
2023/08/21 10:26:29;;;;;;;7.43;1.50;;;23.00;99.90;;;;;;5038792;28;20049;-77
2023/08/21 10:28:59;;;;;;;5.50;1.25;;;23.10;99.90;;;;;;5067224;28;20041;-77
2023/08/21 10:31:32;;;;;;;5.57;1.30;;;23.10;99.90;;;;;;5046657;28;20442;-78
2023/08/21 10:33:59;;;;;;;4.50;1.20;;;23.20;99.90;;;;;;5047242;28;20045;-77
2023/08/21 10:36:42;;;;;;;4.82;1.20;;;23.20;99.90;;;;;;5045091;28;20500;-77
2023/08/21 10:39:20;;;;;;;5.00;1.20;;;23.30;99.90;;;;;;5043542;28;20036;-77
2023/08/21 10:42:07;;;;;;;5.82;1.20;;;23.40;99.90;;;;;;5053805;28;20382;-77
2023/08/21 10:44:47;;;;;;;4.35;1.10;;;23.40;99.90;;;;;;5039907;28;20065;-77
2023/08/21 10:47:18;;;;;;;4.63;1.20;;;23.40;99.90;;;;;;5032746;28;20086;-77
2023/08/21 10:49:45;;;;;;;6.87;1.40;;;23.40;99.90;;;;;;5033262;28;20432;-77
2023/08/21 10:52:12;;;;;;;4.55;1.25;;;23.30;99.90;;;;;;5049610;28;20037;-77
2023/08/21 10:54:52;;;;;;;4.43;1.23;;;23.40;99.90;;;;;;5060861;28;20524;-77
2023/08/21 10:57:18;;;;;;;3.85;1.33;;;23.50;99.90;;;;;;5039602;28;20029;-77
2023/08/21 11:00:03;;;;;;;6.13;1.40;;;23.50;99.90;;;;;;5056129;28;20037;-77
2023/08/21 11:02:30;;;;;;;4.32;1.15;;;23.50;99.90;;;;;;5054830;28;20033;-77
2023/08/21 11:04:57;;;;;;;5.38;1.30;;;23.60;99.90;;;;;;5038465;28;20040;-77
2023/08/21 11:07:24;;;;;;;4.50;1.25;;;23.70;99.90;;;;;;5039443;28;20049;-77
2023/08/21 11:09:50;;;;;;;4.75;1.30;;;23.70;99.90;;;;;;5053187;28;20037;-77
2023/08/21 11:12:18;;;;;;;6.10;1.33;;;23.60;99.90;;;;;;5052719;28;20052;-77
2023/08/21 11:14:44;;;;;;;5.03;1.10;;;23.70;99.90;;;;;;5032630;28;20049;-77
2023/08/21 11:17:10;;;;;;;4.07;1.23;;;23.80;99.90;;;;;;5059855;28;20044;-78
2023/08/21 11:19:38;;;;;;;3.97;1.38;;;23.80;99.90;;;;;;5066910;28;20041;-74
2023/08/21 11:22:05;;;;;;;6.32;1.40;;;23.80;99.90;;;;;;5061138;28;20029;-74
2023/08/21 11:24:37;;;;;;;5.75;1.58;;;23.80;99.90;;;;;;5036368;28;20033;-74
2023/08/21 11:27:14;;;;;;;;;;;23.80;99.90;;;;;;5038486;28;20115;-74
2023/08/21 11:29:47;;;;;;;5.50;1.42;;;23.80;99.90;;;;;;5043673;28;19916;-74
2023/08/21 11:32:15;;;;;;;4.93;1.38;;;23.90;99.90;;;;;;5062411;28;20401;-74
2023/08/21 11:35:03;;;;;;;6.85;1.48;;;23.80;99.90;;;;;;5089050;28;20037;-81
2023/08/21 11:37:28;;;;;;;6.25;1.48;;;23.80;99.90;;;;;;5048422;28;20503;-76
2023/08/21 11:39:57;;;;;;;3.42;1.38;;;23.70;99.90;;;;;;5035390;28;20045;-76
2023/08/21 11:42:31;;;;;;;5.28;1.50;;;23.60;99.90;;;;;;5062596;28;20486;-76
2023/08/21 11:44:58;;;;;;;4.53;1.50;;;23.60;99.90;;;;;;5067102;28;20433;-76
2023/08/21 11:47:29;;;;;;;5.43;1.52;;;23.70;99.90;;;;;;5054951;28;20067;-76
2023/08/21 11:49:55;;;;;;;5.75;1.45;;;23.80;99.90;;;;;;5055097;28;20045;-76
2023/08/21 11:52:22;;;;;;;6.45;1.60;;;23.80;99.90;;;;;;5064434;28;20050;-76
2023/08/21 11:54:53;;;;;;;3.50;1.38;;;23.80;99.90;;;;;;5057072;28;20068;-76
2023/08/21 11:57:19;;;;;;;4.70;1.42;;;23.90;99.90;;;;;;5036139;28;20123;-76
2023/08/21 11:59:52;;;;;;;6.28;1.52;;;23.80;99.90;;;;;;5037033;28;20443;-76
2023/08/21 12:02:26;;;;;;;3.63;1.17;;;23.80;99.90;;;;;;5053184;28;20045;-76
2023/08/21 12:05:13;;;;;;;5.60;1.33;;;23.80;99.90;;;;;;5067320;28;20051;-76
2023/08/21 12:07:39;;;;;;;6.30;1.58;;;23.70;99.90;;;;;;5068205;28;20048;-76
2023/08/21 12:10:05;;;;;;;6.40;1.40;;;23.60;99.90;;;;;;5073274;28;20070;-76
2023/08/21 12:12:30;;;;;;;5.78;1.50;;;23.60;99.90;;;;;;5066826;28;20134;-76
2023/08/21 12:14:56;;;;;;;4.60;1.20;;;23.60;99.90;;;;;;5055081;28;20068;-76
2023/08/21 12:17:22;;;;;;;4.82;1.50;;;23.70;99.90;;;;;;5047134;28;20037;-76
2023/08/21 12:19:48;;;;;;;5.95;1.70;;;23.80;99.90;;;;;;5069602;28;20037;-75
2023/08/21 12:22:13;;;;;;;7.20;1.70;;;23.90;99.90;;;;;;5073090;28;20040;-75
2023/08/21 12:24:39;;;;;;;5.57;1.48;;;24.00;99.90;;;;;;5055083;28;20029;-75
2023/08/21 12:27:05;;;;;;;7.45;1.48;;;24.10;99.90;;;;;;5048232;28;20060;-76
2023/08/21 12:29:31;;;;;;;5.63;1.70;;;24.10;99.90;;;;;;5036920;28;20428;-75
2023/08/21 12:31:57;;;;;;;4.43;1.42;;;24.10;99.90;;;;;;5052914;28;20041;-76
2023/08/21 12:34:22;;;;;;;5.18;1.30;;;24.10;99.90;;;;;;5052163;28;20061;-74
2023/08/21 12:36:50;;;;;;;4.50;1.50;;;24.20;99.90;;;;;;5036246;28;20029;-75
2023/08/21 12:39:16;;;;;;;6.43;1.48;;;24.20;99.90;;;;;;5033349;28;20041;-75
2023/08/21 12:41:42;;;;;;;4.50;1.40;;;24.10;99.90;;;;;;5062531;28;20051;-75
2023/08/21 12:44:08;;;;;;;4.50;1.50;;;24.00;99.90;;;;;;5070144;28;20036;-75
2023/08/21 12:46:35;;;;;;;5.05;1.55;;;24.00;99.90;;;;;;5056296;28;20048;-75